Relevés horaires Schaffen (Belgique)


Relevés horaires à Schaffen - Mardi 13 Avr. 2021
Heure UTC1 Température [°C] Vent [km/h] Hum. [%] Pres.4 [hPa] Visi. [Km] Nébu. [octa] Préc.5 [mm] Cond.
2m. Res. Ros. Dir.2 Vit. Moy. Raf.3
23:00 3.9 3.9 -3.6 NNO 1.9 -- 3.7 58 1032.4(-0.1/3h) 20 -- -- --
22:00 4.1 4.1 -4.2 NNO 1.9 -- 3.7 55 1032.7(0.2/3h) 20 -- -- --
21:00 5.0 5.0 -4.1 NNO 1.9 -- 7.4 52 1032.5(0.5/3h) 20 -- -- --
20:00 5.5 5.5 -4.3 NNO 1.9 -- 5.6 49 1032.5(0.6/3h) 20 -- -- --
19:00 6.2 5.2 -4.3 N 5.6 -- 7.4 47 1032.4(0.5/3h) 20 -- -- --
18:00 6.6 5.7 -3.5 N 5.6 -- 16.7 48 1032(0.0/3h) 20 -- -- --
17:00 7.8 5.8 -2.4 N 11.1 -- 16.7 48 1031.9(-0.3/3h) 20 -- -- --
16:00 8.6 8 -6.1 N 5.6 -- 9.3 35 1031.7(-0.9/3h) 20 -- -- --
15:00 9.4 9.4 -5.8 N 3.7 -- 11.1 34 1031.9(-1.0/3h) 20 -- -- --
14:00 9.8 9.8 -4.1 NNO 1.9 -- 9.3 37 1032.2(-1.1/3h) 19 -- -- --
13:00 8.1 6.9 -2.7 N 7.4 -- 11.1 46 1032.7(-1.1/3h) 20 4/8 -- Il y a des averses de pluie faibles à la station au moment de l'observation
12:00 9.1 9.1 -1.7 NNO 1.9 -- 9.3 47 1033(-1.0/3h) 20 5/8 -- --
11:00 7.8 7.8 -0.8 N 3.7 -- 9.3 54 1033.5(-0.4/3h) 20 5/8 -- --
10:00 6.7 6.7 -1.1 NNO 3.7 -- 9.3 57 1033.9(0.2/3h) 20 5/8 -- --
09:00 5.5 4.4 -0.8 NNO 5.6 -- 9.3 64 1034.2(0.9/3h) 20 6/8 -- --
08:00 4.8 4.8 0.4 NNO 1.9 -- 3.7 73 1034(1.3/3h) 20 5/8 -- --
07:00 2.9 2.9 -0.7 NNO 1.9 -- 1.9 77 1033.7(1.5/3h) 20 -- -- --
06:00 -0.2 -0.2 -1.9 NNO 1.9 -- 9.3 88 1033.4(1.1/3h) 14 -- -- --
05:00 -0.9 -0.9 -3.2 NNO 1.9 -- 7.4 84 1032.7(0.7/3h) 17 -- -- --
04:00 0.5 -1.3 -3.0 O 5.6 -- 7.4 77 1032.2(0.3/3h) 20 -- -- --
03:00 0.6 -1.2 -3.4 O 5.6 -- 9.3 74 1032.2(0.2/3h) 20 -- -- --
02:00 1.7 0.1 -3.4 O 5.6 -- 9.3 69 1032(0.3/3h) 20 -- -- --
01:00 1.9 0.3 -3.2 O 5.6 -- 7.4 69 1031.9(0.5/3h) 20 -- -- --
00:00 1.9 0.3 -3.5 ONO 5.6 -- 9.3 67 1031.9(0.8/3h) 20 -- -- --

1 Coordinated Universal Time. Actuellement il est 20:00 locale et 18:00 UTC.

2 Le vent souffle depuis la direction indiquée vers la direction oposée.

3 Les rafales max. sont disponible 40 min après l'heure du relevé.

4 Pour les stations d'altitude (plus de 600m) le géopotentiel du niveau le plus proche de la pression obligatoire est indiqué.

5 Les stations disposant d'un diffuseur peuvent indiquer "trace". Cela signifie que des précipitations ont touchés le sol mais que la quantité est inférieure à 0.1 mm.

Récapitulatif de la journée
Température [°C] Vent [km/h] Ensoleillement4 [h] Precipitations totale5 [mm] Pression [Hpa]
Min1 Max.2 Moy.3 Max. Min Max.
-1.1 10.5 0 16.7 0 h 0 min 0 1031.7 1034.2

1 Température minimale relevée entre 18:00 UTC la veille et 18:00 UTC le jour donné.

2 Température maximale relevée entre 06:00 UTC le jour donné et 06:00 UTC le lendemain.

3 Vent moyen de la journée basé sur les relevés horaires.

4 Ensoleillement en heures relevé entre 06:00 UTC la veille et 06:00 UTC le jour donné.

5 Précipitations totales tombées entre 06:00 UTC la jour donné et 06:00 UTC le lendemain.

Graphiques horaires